TFM - Tactical Decision Aid
ID: Runway Winds: CIG/VIS Threshold:

KAGS - Augusta Rgnl, GA, US

Updated at: 0947 UTC 26 Jan 2020
Latest TAF at: 0922 UTC 26 Jan 2020

TAF Board

Time0853Z 26/10Z 26/11Z 26/12Z 26/13Z 26/14Z 26/15Z 26/16Z 26/17Z 26/18Z 26/19Z 26/20Z 26/21Z 26/22Z>>
Type OBS PRVL PRVL PRVL PRVL PRVL PRVL PRVL PRVL PRVL PRVL PRVL PRVL PRVL
VIS 10 >6 >6 >6 >6 >6 >6 >6 >6 >6 >6 >6 >6 >6
CIG -- 250 250 250 250 -- -- -- -- -- -- -- -- --
Cover CLR BKN BKN BKN BKN SCT SCT SCT SCT SCT SCT SCT SCT SCT
FltCat VFR VFR VFR VFR VFR VFR VFR VFR VFR VFR VFR VFR VFR VFR
WX -- -- -- -- -- -- -- -- -- -- -- -- -- --
WDir 210 280 280 280 280 300 300 300 300 300 300 300 300 300
WSpd 3 8 8 8 8 8 8 8 8 8 8 8 8 8
WGst -- -- -- -- -- -- -- -- -- -- -- -- -- --

TDA Impact Legend

  None Marginal Slight Moderate High
Visibility (sm) >5 3≤X≤5 2≤X<3 0.5≤X<2 <0.5
Ceiling (100 ft) >30 10≤X≤30 7≤X<10 2≤X<7 <2
Wind Speed (kt) <15 15≤X<25 25≤X<30 ≥30
Wind Gust (kt) <15 15≤X<25 25≤X<35 ≥35
Weather No Wx Reported VCTS -TS,-FZRA TS,FZRA +TS,+FZRA
TAF
KAGS 260922Z 2609/2706 28008KT P6SM BKN250
  FM261400 30008KT P6SM SCT250
  FM270500 VRB03KT P6SM BKN050 OVC120


METAR
KAGS 260853Z AUTO 21003KT 10SM CLR 04/01 A3005 RMK AO2 SLP176 T00390006 58005
KAGS 260753Z AUTO 00000KT 10SM CLR 03/01 A3006 RMK AO2 SLP180 T00330011
KAGS 260653Z AUTO 24003KT 10SM CLR 04/01 A3006 RMK AO2 SLP179 T00440006

Radar Display
Forecast Discussion